Rocky Ridge, Ohio
Current Conditions -  °F | °C
As of 2:53 AM on Friday 31 Oct 2014 (Local Time) from KTDZ Reporting Station
Overcast Overcast  
Wind Chill: 42°   Ceiling: 4500
Heat Index: 45°   Visibility: 10mi
Dew Point: 37°   Wind: 6mph
Humidity: 74%   Direction: 230°SW
Pressure: 30"   Gusts: NA
Location:  41.53°N, 83.21°W
Report Text: KTDZ 310653Z AUTO 23005KT 10SM OVC045 07/03 A3000 RMK AO2 SLP160 T00720028 TSNO
Loading
Personal Weather Stations






























Interactive Weather Map
Tropical Storm Tracking
New forecast layout! Learn more

10-Day Weather Forecast

Advertisements
Track Severe Weather on mobile